sensor_id;sensor_type;location;lat;lon;timestamp;pressure;altitude;pressure_sealevel;temperature;humidity
3434;BME280;1730;41.932;25.548;2023-04-15T00:00:15;101819.53;;;13.99;100.00
3434;BME280;1730;41.932;25.548;2023-04-15T00:02:42;101740.12;;;13.61;100.00
3434;BME280;1730;41.932;25.548;2023-04-15T00:05:08;101788.06;;;13.73;100.00
3434;BME280;1730;41.932;25.548;2023-04-15T00:07:34;101804.28;;;13.85;100.00
3434;BME280;1730;41.932;25.548;2023-04-15T00:10:00;101770.97;;;13.83;100.00
3434;BME280;1730;41.932;25.548;2023-04-15T00:12:27;101752.75;;;13.85;100.00
3434;BME280;1730;41.932;25.548;2023-04-15T00:14:52;101718.28;;;13.75;100.00
3434;BME280;1730;41.932;25.548;2023-04-15T00:17:19;101712.03;;;13.62;100.00
3434;BME280;1730;41.932;25.548;2023-04-15T00:19:44;101753.59;;;13.62;100.00
3434;BME280;1730;41.932;25.548;2023-04-15T00:22:11;101793.50;;;13.60;100.00
3434;BME280;1730;41.932;25.548;2023-04-15T00:24:37;101853.78;;;13.64;100.00
3434;BME280;1730;41.932;25.548;2023-04-15T00:27:03;101934.22;;;13.88;100.00
3434;BME280;1730;41.932;25.548;2023-04-15T00:29:29;101975.72;;;14.14;100.00
3434;BME280;1730;41.932;25.548;2023-04-15T00:31:55;101933.97;;;14.17;100.00
3434;BME280;1730;41.932;25.548;2023-04-15T00:34:21;101902.41;;;14.03;100.00
3434;BME280;1730;41.932;25.548;2023-04-15T00:36:47;101895.59;;;13.97;100.00
3434;BME280;1730;41.932;25.548;2023-04-15T00:39:13;101885.38;;;14.01;100.00
3434;BME280;1730;41.932;25.548;2023-04-15T00:41:41;101894.66;;;14.10;100.00
3434;BME280;1730;41.932;25.548;2023-04-15T00:44:07;101891.28;;;14.19;100.00
3434;BME280;1730;41.932;25.548;2023-04-15T00:46:35;101877.66;;;14.31;100.00
3434;BME280;1730;41.932;25.548;2023-04-15T00:49:03;101856.09;;;14.17;100.00
3434;BME280;1730;41.932;25.548;2023-04-15T00:51:29;101859.81;;;14.16;100.00
3434;BME280;1730;41.932;25.548;2023-04-15T00:54:04;101639.56;;;12.80;100.00
3434;BME280;1730;41.932;25.548;2023-04-15T00:56:34;101789.19;;;13.45;100.00
3434;BME280;1730;41.932;25.548;2023-04-15T00:59:00;101921.47;;;14.14;100.00
3434;BME280;1730;41.932;25.548;2023-04-15T01:01:27;101894.81;;;13.95;100.00
3434;BME280;1730;41.932;25.548;2023-04-15T01:03:54;101816.53;;;13.42;100.00
3434;BME280;1730;41.932;25.548;2023-04-15T01:06:20;101989.69;;;14.46;100.00
3434;BME280;1730;41.932;25.548;2023-04-15T01:08:46;101963.34;;;14.35;100.00
3434;BME280;1730;41.932;25.548;2023-04-15T01:11:12;101940.53;;;14.38;100.00
3434;BME280;1730;41.932;25.548;2023-04-15T01:13:39;101853.91;;;14.22;100.00
3434;BME280;1730;41.932;25.548;2023-04-15T01:16:05;101808.19;;;14.29;100.00
3434;BME280;1730;41.932;25.548;2023-04-15T01:18:32;101756.47;;;14.19;100.00
3434;BME280;1730;41.932;25.548;2023-04-15T01:20:59;101721.94;;;14.21;100.00
3434;BME280;1730;41.932;25.548;2023-04-15T01:23:26;101688.09;;;14.14;100.00
3434;BME280;1730;41.932;25.548;2023-04-15T01:25:52;101566.50;;;13.51;100.00
3434;BME280;1730;41.932;25.548;2023-04-15T01:28:18;101634.13;;;13.87;100.00
3434;BME280;1730;41.932;25.548;2023-04-15T01:30:44;101643.06;;;13.66;100.00
3434;BME280;1730;41.932;25.548;2023-04-15T01:33:09;101669.09;;;13.68;100.00
3434;BME280;1730;41.932;25.548;2023-04-15T01:35:35;101673.28;;;13.72;100.00
3434;BME280;1730;41.932;25.548;2023-04-15T01:38:05;101690.97;;;13.89;100.00
3434;BME280;1730;41.932;25.548;2023-04-15T01:40:32;101669.19;;;14.02;100.00
3434;BME280;1730;41.932;25.548;2023-04-15T01:42:58;101625.06;;;13.99;100.00
3434;BME280;1730;41.932;25.548;2023-04-15T01:45:23;101573.50;;;13.88;100.00
3434;BME280;1730;41.932;25.548;2023-04-15T01:47:49;101608.84;;;13.87;100.00
3434;BME280;1730;41.932;25.548;2023-04-15T01:50:14;101677.34;;;13.78;100.00
3434;BME280;1730;41.932;25.548;2023-04-15T01:52:40;101742.94;;;13.35;100.00
3434;BME280;1730;41.932;25.548;2023-04-15T01:55:07;101893.47;;;13.65;100.00
3434;BME280;1730;41.932;25.548;2023-04-15T01:57:33;101973.41;;;13.72;100.00
3434;BME280;1730;41.932;25.548;2023-04-15T01:59:58;102050.63;;;13.79;100.00
3434;BME280;1730;41.932;25.548;2023-04-15T02:02:24;102107.19;;;13.97;100.00
3434;BME280;1730;41.932;25.548;2023-04-15T02:04:50;102107.84;;;14.01;100.00
3434;BME280;1730;41.932;25.548;2023-04-15T02:07:15;102044.16;;;13.81;100.00
3434;BME280;1730;41.932;25.548;2023-04-15T02:09:41;101990.66;;;13.71;100.00
3434;BME280;1730;41.932;25.548;2023-04-15T02:12:08;102008.84;;;13.56;100.00
3434;BME280;1730;41.932;25.548;2023-04-15T02:14:33;102033.56;;;13.51;100.00
3434;BME280;1730;41.932;25.548;2023-04-15T02:16:59;102116.81;;;13.64;100.00
3434;BME280;1730;41.932;25.548;2023-04-15T02:19:32;102135.31;;;13.57;100.00
3434;BME280;1730;41.932;25.548;2023-04-15T02:21:58;102173.41;;;13.56;100.00
3434;BME280;1730;41.932;25.548;2023-04-15T02:24:27;102235.69;;;13.70;100.00
3434;BME280;1730;41.932;25.548;2023-04-15T02:26:52;102279.53;;;13.76;100.00
3434;BME280;1730;41.932;25.548;2023-04-15T02:29:18;102320.06;;;13.92;100.00
3434;BME280;1730;41.932;25.548;2023-04-15T02:31:43;102160.84;;;12.99;100.00
3434;BME280;1730;41.932;25.548;2023-04-15T02:34:09;102289.88;;;13.84;100.00
3434;BME280;1730;41.932;25.548;2023-04-15T02:36:35;102261.69;;;13.86;100.00
3434;BME280;1730;41.932;25.548;2023-04-15T02:39:01;102256.06;;;13.89;100.00
3434;BME280;1730;41.932;25.548;2023-04-15T02:41:27;102218.53;;;13.69;100.00
3434;BME280;1730;41.932;25.548;2023-04-15T02:43:54;102235.75;;;13.56;100.00
3434;BME280;1730;41.932;25.548;2023-04-15T02:46:20;102361.97;;;13.74;100.00
3434;BME280;1730;41.932;25.548;2023-04-15T02:48:50;102405.94;;;13.65;100.00
3434;BME280;1730;41.932;25.548;2023-04-15T02:51:20;102475.03;;;13.73;100.00
3434;BME280;1730;41.932;25.548;2023-04-15T02:53:47;102512.19;;;13.71;100.00
3434;BME280;1730;41.932;25.548;2023-04-15T02:56:13;102523.53;;;13.64;100.00
3434;BME280;1730;41.932;25.548;2023-04-15T02:58:44;102575.06;;;13.78;100.00
3434;BME280;1730;41.932;25.548;2023-04-15T03:01:09;102552.78;;;13.59;100.00
3434;BME280;1730;41.932;25.548;2023-04-15T03:03:35;102605.22;;;13.87;100.00
3434;BME280;1730;41.932;25.548;2023-04-15T03:06:01;102550.66;;;13.64;100.00
3434;BME280;1730;41.932;25.548;2023-04-15T03:08:26;102590.31;;;13.94;100.00
3434;BME280;1730;41.932;25.548;2023-04-15T03:10:52;102565.78;;;13.82;100.00
3434;BME280;1730;41.932;25.548;2023-04-15T03:13:19;102528.66;;;13.54;100.00
3434;BME280;1730;41.932;25.548;2023-04-15T03:15:46;102582.06;;;13.82;100.00
3434;BME280;1730;41.932;25.548;2023-04-15T03:18:11;102551.31;;;13.53;100.00
3434;BME280;1730;41.932;25.548;2023-04-15T03:20:37;102621.16;;;13.64;100.00
3434;BME280;1730;41.932;25.548;2023-04-15T03:23:02;102670.13;;;13.61;100.00
3434;BME280;1730;41.932;25.548;2023-04-15T03:25:28;102722.19;;;13.67;100.00
3434;BME280;1730;41.932;25.548;2023-04-15T03:27:53;102762.72;;;13.54;100.00
3434;BME280;1730;41.932;25.548;2023-04-15T03:30:19;102813.94;;;13.43;100.00
3434;BME280;1730;41.932;25.548;2023-04-15T03:32:44;102888.47;;;13.52;100.00
3434;BME280;1730;41.932;25.548;2023-04-15T03:35:10;102953.16;;;13.60;100.00
3434;BME280;1730;41.932;25.548;2023-04-15T03:37:36;103012.06;;;13.73;100.00
3434;BME280;1730;41.932;25.548;2023-04-15T03:40:01;103005.81;;;13.71;100.00
3434;BME280;1730;41.932;25.548;2023-04-15T03:42:27;103025.09;;;13.82;100.00
3434;BME280;1730;41.932;25.548;2023-04-15T03:44:52;103019.78;;;13.81;100.00
3434;BME280;1730;41.932;25.548;2023-04-15T03:47:18;103015.78;;;13.71;100.00
3434;BME280;1730;41.932;25.548;2023-04-15T03:49:43;103069.19;;;14.03;100.00
3434;BME280;1730;41.932;25.548;2023-04-15T03:52:09;103058.78;;;14.11;100.00
3434;BME280;1730;41.932;25.548;2023-04-15T03:54:34;103012.63;;;14.11;100.00
3434;BME280;1730;41.932;25.548;2023-04-15T03:57:00;102984.44;;;14.29;100.00
3434;BME280;1730;41.932;25.548;2023-04-15T03:59:25;102649.97;;;12.56;100.00
3434;BME280;1730;41.932;25.548;2023-04-15T04:01:51;102872.22;;;13.83;100.00
3434;BME280;1730;41.932;25.548;2023-04-15T04:04:17;102939.19;;;13.98;100.00
3434;BME280;1730;41.932;25.548;2023-04-15T04:06:42;102996.72;;;14.21;100.00
3434;BME280;1730;41.932;25.548;2023-04-15T04:09:08;102964.56;;;13.97;100.00
3434;BME280;1730;41.932;25.548;2023-04-15T04:11:33;102993.13;;;14.20;100.00
3434;BME280;1730;41.932;25.548;2023-04-15T04:13:59;102930.88;;;13.86;100.00
3434;BME280;1730;41.932;25.548;2023-04-15T04:16:24;102965.19;;;14.03;100.00
3434;BME280;1730;41.932;25.548;2023-04-15T04:18:50;102982.41;;;14.17;100.00
3434;BME280;1730;41.932;25.548;2023-04-15T04:21:15;102936.91;;;14.07;100.00
3434;BME280;1730;41.932;25.548;2023-04-15T04:23:41;102904.94;;;14.12;100.00
3434;BME280;1730;41.932;25.548;2023-04-15T04:26:07;102879.38;;;14.16;100.00
3434;BME280;1730;41.932;25.548;2023-04-15T04:28:32;102809.81;;;13.99;100.00
3434;BME280;1730;41.932;25.548;2023-04-15T04:30:59;102750.41;;;13.79;100.00
3434;BME280;1730;41.932;25.548;2023-04-15T04:33:25;102775.97;;;13.75;100.00
3434;BME280;1730;41.932;25.548;2023-04-15T04:35:50;102858.97;;;14.09;100.00
3434;BME280;1730;41.932;25.548;2023-04-15T04:38:16;102891.34;;;14.27;100.00
3434;BME280;1730;41.932;25.548;2023-04-15T04:40:41;102873.06;;;14.15;100.00
3434;BME280;1730;41.932;25.548;2023-04-15T04:43:07;102866.84;;;14.13;100.00
3434;BME280;1730;41.932;25.548;2023-04-15T04:45:33;102869.47;;;14.30;100.00
3434;BME280;1730;41.932;25.548;2023-04-15T04:47:59;102837.19;;;14.10;100.00
3434;BME280;1730;41.932;25.548;2023-04-15T04:50:24;102819.37;;;13.90;100.00
3434;BME280;1730;41.932;25.548;2023-04-15T04:52:50;102865.69;;;14.17;100.00
3434;BME280;1730;41.932;25.548;2023-04-15T04:55:15;102881.28;;;14.29;100.00
3434;BME280;1730;41.932;25.548;2023-04-15T04:57:41;102849.06;;;14.23;100.00
3434;BME280;1730;41.932;25.548;2023-04-15T05:00:07;102830.78;;;14.11;100.00
3434;BME280;1730;41.932;25.548;2023-04-15T05:02:33;102800.50;;;13.73;100.00
3434;BME280;1730;41.932;25.548;2023-04-15T05:04:59;102912.13;;;14.13;100.00
3434;BME280;1730;41.932;25.548;2023-04-15T05:07:24;102960.00;;;14.29;100.00
3434;BME280;1730;41.932;25.548;2023-04-15T05:09:50;102964.75;;;14.41;100.00
3434;BME280;1730;41.932;25.548;2023-04-15T05:12:16;102898.03;;;14.37;100.00
3434;BME280;1730;41.932;25.548;2023-04-15T05:14:42;102850.72;;;14.41;100.00
3434;BME280;1730;41.932;25.548;2023-04-15T05:17:08;102847.84;;;14.59;100.00
3434;BME280;1730;41.932;25.548;2023-04-15T05:19:34;102863.22;;;14.88;100.00
3434;BME280;1730;41.932;25.548;2023-04-15T05:21:59;102871.22;;;15.19;100.00
3434;BME280;1730;41.932;25.548;2023-04-15T05:24:25;102660.94;;;14.65;100.00
3434;BME280;1730;41.932;25.548;2023-04-15T05:26:51;102692.94;;;15.83;100.00
3434;BME280;1730;41.932;25.548;2023-04-15T05:29:16;102527.12;;;15.80;100.00
3434;BME280;1730;41.932;25.548;2023-04-15T05:31:42;102422.47;;;16.33;100.00
3434;BME280;1730;41.932;25.548;2023-04-15T05:34:08;102161.50;;;16.16;100.00
3434;BME280;1730;41.932;25.548;2023-04-15T05:36:33;102033.28;;;16.63;100.00
3434;BME280;1730;41.932;25.548;2023-04-15T05:38:59;101823.63;;;17.24;100.00
3434;BME280;1730;41.932;25.548;2023-04-15T05:41:25;101541.16;;;18.26;100.00
3434;BME280;1730;41.932;25.548;2023-04-15T05:43:50;101138.25;;;17.51;100.00
3434;BME280;1730;41.932;25.548;2023-04-15T05:46:16;100936.34;;;18.20;100.00
3434;BME280;1730;41.932;25.548;2023-04-15T05:48:41;100642.97;;;17.98;100.00
3434;BME280;1730;41.932;25.548;2023-04-15T05:51:07;100587.50;;;18.55;100.00
3434;BME280;1730;41.932;25.548;2023-04-15T05:53:32;100426.81;;;18.03;100.00
3434;BME280;1730;41.932;25.548;2023-04-15T05:55:58;100416.50;;;17.66;100.00
3434;BME280;1730;41.932;25.548;2023-04-15T05:58:23;100361.22;;;17.80;100.00
3434;BME280;1730;41.932;25.548;2023-04-15T06:00:48;100327.66;;;16.50;100.00
3434;BME280;1730;41.932;25.548;2023-04-15T06:03:14;100539.22;;;16.84;100.00
3434;BME280;1730;41.932;25.548;2023-04-15T06:05:40;100551.00;;;16.07;100.00
3434;BME280;1730;41.932;25.548;2023-04-15T06:08:05;100678.59;;;16.28;100.00
3434;BME280;1730;41.932;25.548;2023-04-15T06:10:31;100673.81;;;16.99;100.00
3434;BME280;1730;41.932;25.548;2023-04-15T06:13:03;100636.63;;;17.82;100.00
3434;BME280;1730;41.932;25.548;2023-04-15T06:15:29;100262.94;;;17.41;100.00
3434;BME280;1730;41.932;25.548;2023-04-15T06:17:55;100109.72;;;16.99;100.00
3434;BME280;1730;41.932;25.548;2023-04-15T06:20:20;100118.00;;;18.06;100.00
3434;BME280;1730;41.932;25.548;2023-04-15T06:22:46;99961.94;;;16.50;100.00
3434;BME280;1730;41.932;25.548;2023-04-15T06:25:12;100064.59;;;17.66;100.00
3434;BME280;1730;41.932;25.548;2023-04-15T06:27:38;100043.97;;;16.63;100.00
3434;BME280;1730;41.932;25.548;2023-04-15T06:30:04;100151.38;;;16.20;100.00
3434;BME280;1730;41.932;25.548;2023-04-15T06:32:31;100219.25;;;16.38;100.00
3434;BME280;1730;41.932;25.548;2023-04-15T06:34:57;100229.16;;;16.63;100.00
3434;BME280;1730;41.932;25.548;2023-04-15T06:37:22;100241.91;;;16.87;100.00
3434;BME280;1730;41.932;25.548;2023-04-15T06:39:48;100076.03;;;16.20;100.00
3434;BME280;1730;41.932;25.548;2023-04-15T06:42:13;100148.53;;;17.09;100.00
3434;BME280;1730;41.932;25.548;2023-04-15T06:44:39;100053.84;;;17.11;100.00
3434;BME280;1730;41.932;25.548;2023-04-15T06:47:05;99991.06;;;17.50;100.00
3434;BME280;1730;41.932;25.548;2023-04-15T06:49:30;99950.72;;;17.83;100.00
3434;BME280;1730;41.932;25.548;2023-04-15T06:51:56;99850.34;;;17.93;100.00
3434;BME280;1730;41.932;25.548;2023-04-15T06:54:22;99830.66;;;17.97;100.00
3434;BME280;1730;41.932;25.548;2023-04-15T06:56:47;99743.47;;;17.89;100.00
3434;BME280;1730;41.932;25.548;2023-04-15T06:59:13;99754.25;;;18.12;100.00
3434;BME280;1730;41.932;25.548;2023-04-15T07:01:42;99688.72;;;17.47;100.00
3434;BME280;1730;41.932;25.548;2023-04-15T07:04:07;99774.41;;;17.82;100.00
3434;BME280;1730;41.932;25.548;2023-04-15T07:06:33;99683.97;;;17.20;100.00
3434;BME280;1730;41.932;25.548;2023-04-15T07:09:00;99579.66;;;16.96;100.00
3434;BME280;1730;41.932;25.548;2023-04-15T07:11:26;99631.16;;;17.71;100.00
3434;BME280;1730;41.932;25.548;2023-04-15T07:13:51;99593.00;;;17.92;100.00
3434;BME280;1730;41.932;25.548;2023-04-15T07:16:17;99574.00;;;17.63;100.00
3434;BME280;1730;41.932;25.548;2023-04-15T07:18:42;99544.37;;;17.24;100.00
3434;BME280;1730;41.932;25.548;2023-04-15T07:21:08;99527.59;;;17.06;100.00
3434;BME280;1730;41.932;25.548;2023-04-15T07:23:34;99555.56;;;17.65;100.00
3434;BME280;1730;41.932;25.548;2023-04-15T07:25:59;99532.41;;;18.25;100.00
3434;BME280;1730;41.932;25.548;2023-04-15T07:28:26;99457.94;;;18.10;100.00
3434;BME280;1730;41.932;25.548;2023-04-15T07:30:51;99460.22;;;18.34;100.00
3434;BME280;1730;41.932;25.548;2023-04-15T07:33:17;99368.63;;;18.31;100.00
3434;BME280;1730;41.932;25.548;2023-04-15T07:35:42;99377.06;;;18.43;100.00
3434;BME280;1730;41.932;25.548;2023-04-15T07:38:09;99330.75;;;18.69;100.00
3434;BME280;1730;41.932;25.548;2023-04-15T07:40:37;99275.19;;;18.36;100.00
3434;BME280;1730;41.932;25.548;2023-04-15T07:43:03;99293.38;;;18.16;100.00
3434;BME280;1730;41.932;25.548;2023-04-15T07:45:30;99300.78;;;18.28;100.00
3434;BME280;1730;41.932;25.548;2023-04-15T07:47:56;99223.59;;;18.61;100.00
3434;BME280;1730;41.932;25.548;2023-04-15T07:50:21;99192.22;;;18.37;100.00
3434;BME280;1730;41.932;25.548;2023-04-15T07:52:48;99141.72;;;17.39;100.00
3434;BME280;1730;41.932;25.548;2023-04-15T07:55:13;99222.87;;;18.32;100.00
3434;BME280;1730;41.932;25.548;2023-04-15T07:57:41;99198.53;;;18.37;100.00
3434;BME280;1730;41.932;25.548;2023-04-15T08:00:06;99075.78;;;17.70;100.00
3434;BME280;1730;41.932;25.548;2023-04-15T08:02:32;99199.78;;;18.28;100.00
3434;BME280;1730;41.932;25.548;2023-04-15T08:04:58;99245.72;;;18.12;100.00
3434;BME280;1730;41.932;25.548;2023-04-15T08:07:24;99267.56;;;18.12;100.00
3434;BME280;1730;41.932;25.548;2023-04-15T08:09:50;99276.66;;;18.32;100.00
3434;BME280;1730;41.932;25.548;2023-04-15T08:12:16;99181.12;;;18.45;100.00
3434;BME280;1730;41.932;25.548;2023-04-15T08:14:42;99106.25;;;17.87;100.00
3434;BME280;1730;41.932;25.548;2023-04-15T08:17:07;99244.97;;;18.44;100.00
3434;BME280;1730;41.932;25.548;2023-04-15T08:19:33;99185.53;;;18.46;100.00
3434;BME280;1730;41.932;25.548;2023-04-15T08:21:58;99066.25;;;18.60;100.00
3434;BME280;1730;41.932;25.548;2023-04-15T08:24:24;99035.75;;;18.76;100.00
3434;BME280;1730;41.932;25.548;2023-04-15T08:26:51;98980.47;;;18.74;100.00
3434;BME280;1730;41.932;25.548;2023-04-15T08:29:17;98937.62;;;18.68;100.00
3434;BME280;1730;41.932;25.548;2023-04-15T08:31:42;98934.22;;;18.79;100.00
3434;BME280;1730;41.932;25.548;2023-04-15T08:34:08;98875.13;;;18.33;100.00
3434;BME280;1730;41.932;25.548;2023-04-15T08:36:34;98900.00;;;18.70;100.00
3434;BME280;1730;41.932;25.548;2023-04-15T08:38:59;98910.47;;;18.79;100.00
3434;BME280;1730;41.932;25.548;2023-04-15T08:41:38;98877.28;;;19.14;100.00
3434;BME280;1730;41.932;25.548;2023-04-15T08:44:04;98830.66;;;19.33;100.00
3434;BME280;1730;41.932;25.548;2023-04-15T08:46:31;98825.28;;;19.52;100.00
3434;BME280;1730;41.932;25.548;2023-04-15T08:48:58;98804.56;;;19.62;100.00
3434;BME280;1730;41.932;25.548;2023-04-15T08:51:24;98805.81;;;19.85;100.00
3434;BME280;1730;41.932;25.548;2023-04-15T08:53:50;98813.44;;;19.83;100.00
3434;BME280;1730;41.932;25.548;2023-04-15T08:56:18;98803.34;;;19.58;100.00
3434;BME280;1730;41.932;25.548;2023-04-15T08:58:45;98792.28;;;19.90;100.00
3434;BME280;1730;41.932;25.548;2023-04-15T09:01:12;98791.56;;;20.01;100.00
3434;BME280;1730;41.932;25.548;2023-04-15T09:03:38;98786.88;;;20.01;100.00
3434;BME280;1730;41.932;25.548;2023-04-15T09:06:05;98760.88;;;20.47;100.00
3434;BME280;1730;41.932;25.548;2023-04-15T09:08:31;98729.03;;;20.16;100.00
3434;BME280;1730;41.932;25.548;2023-04-15T09:10:58;98727.97;;;20.35;100.00
3434;BME280;1730;41.932;25.548;2023-04-15T09:13:24;98650.94;;;20.13;100.00
3434;BME280;1730;41.932;25.548;2023-04-15T09:15:49;98722.28;;;20.78;100.00
3434;BME280;1730;41.932;25.548;2023-04-15T09:18:26;98703.69;;;20.20;100.00
3434;BME280;1730;41.932;25.548;2023-04-15T09:20:53;98730.06;;;20.63;100.00
3434;BME280;1730;41.932;25.548;2023-04-15T09:23:19;98591.75;;;20.12;100.00
3434;BME280;1730;41.932;25.548;2023-04-15T09:25:44;98671.19;;;20.42;100.00
3434;BME280;1730;41.932;25.548;2023-04-15T09:28:10;98617.88;;;20.27;100.00
3434;BME280;1730;41.932;25.548;2023-04-15T09:30:36;98693.94;;;20.54;100.00
3434;BME280;1730;41.932;25.548;2023-04-15T09:33:03;98692.03;;;20.96;100.00
3434;BME280;1730;41.932;25.548;2023-04-15T09:35:35;98674.41;;;21.62;100.00
3434;BME280;1730;41.932;25.548;2023-04-15T09:38:08;98679.78;;;21.34;100.00
3434;BME280;1730;41.932;25.548;2023-04-15T09:40:35;98674.41;;;20.92;100.00
3434;BME280;1730;41.932;25.548;2023-04-15T09:43:02;98701.97;;;20.67;100.00
3434;BME280;1730;41.932;25.548;2023-04-15T09:45:29;98690.81;;;20.81;100.00
3434;BME280;1730;41.932;25.548;2023-04-15T09:47:57;98653.41;;;20.86;100.00
3434;BME280;1730;41.932;25.548;2023-04-15T09:50:26;98676.88;;;20.71;100.00
3434;BME280;1730;41.932;25.548;2023-04-15T09:52:52;98656.28;;;20.91;100.00
3434;BME280;1730;41.932;25.548;2023-04-15T09:55:18;98662.75;;;21.32;100.00
3434;BME280;1730;41.932;25.548;2023-04-15T09:57:44;98643.03;;;21.11;100.00
3434;BME280;1730;41.932;25.548;2023-04-15T10:00:13;98636.50;;;21.24;100.00
3434;BME280;1730;41.932;25.548;2023-04-15T10:02:39;98620.59;;;21.61;100.00
3434;BME280;1730;41.932;25.548;2023-04-15T10:05:08;98622.41;;;21.95;100.00
3434;BME280;1730;41.932;25.548;2023-04-15T10:07:35;98619.16;;;22.10;100.00
3434;BME280;1730;41.932;25.548;2023-04-15T10:10:02;98622.37;;;21.55;100.00
3434;BME280;1730;41.932;25.548;2023-04-15T10:12:28;98621.34;;;21.45;100.00
3434;BME280;1730;41.932;25.548;2023-04-15T10:15:03;98622.88;;;21.52;100.00
3434;BME280;1730;41.932;25.548;2023-04-15T10:17:32;98616.22;;;21.48;100.00
3434;BME280;1730;41.932;25.548;2023-04-15T10:20:03;98620.16;;;21.29;100.00
3434;BME280;1730;41.932;25.548;2023-04-15T10:22:30;98610.50;;;21.38;100.00
3434;BME280;1730;41.932;25.548;2023-04-15T10:24:56;98552.47;;;20.95;100.00
3434;BME280;1730;41.932;25.548;2023-04-15T10:27:22;98600.66;;;21.66;100.00
3434;BME280;1730;41.932;25.548;2023-04-15T10:29:49;98490.38;;;21.69;100.00
3434;BME280;1730;41.932;25.548;2023-04-15T10:32:18;98592.03;;;22.14;100.00
3434;BME280;1730;41.932;25.548;2023-04-15T10:34:45;98522.97;;;21.65;100.00
3434;BME280;1730;41.932;25.548;2023-04-15T10:37:11;98576.37;;;22.14;100.00
3434;BME280;1730;41.932;25.548;2023-04-15T10:39:43;98576.63;;;21.73;100.00
3434;BME280;1730;41.932;25.548;2023-04-15T10:42:11;98601.56;;;21.20;100.00
3434;BME280;1730;41.932;25.548;2023-04-15T10:44:51;98596.22;;;21.76;100.00
3434;BME280;1730;41.932;25.548;2023-04-15T10:47:21;98562.81;;;21.04;100.00
3434;BME280;1730;41.932;25.548;2023-04-15T10:49:48;98567.00;;;20.95;100.00
3434;BME280;1730;41.932;25.548;2023-04-15T10:52:16;98590.72;;;21.36;100.00
3434;BME280;1730;41.932;25.548;2023-04-15T10:54:43;98601.78;;;21.06;100.00
3434;BME280;1730;41.932;25.548;2023-04-15T11:02:56;98582.38;;;20.73;100.00
3434;BME280;1730;41.932;25.548;2023-04-15T11:05:49;98577.03;;;20.66;100.00
3434;BME280;1730;41.932;25.548;2023-04-15T11:08:15;98567.81;;;21.07;100.00
3434;BME280;1730;41.932;25.548;2023-04-15T11:15:39;98534.91;;;21.71;100.00
3434;BME280;1730;41.932;25.548;2023-04-15T11:18:17;98517.31;;;22.28;100.00
3434;BME280;1730;41.932;25.548;2023-04-15T11:20:45;98513.81;;;22.33;100.00
3434;BME280;1730;41.932;25.548;2023-04-15T11:23:13;98501.56;;;22.40;100.00
3434;BME280;1730;41.932;25.548;2023-04-15T11:25:38;98510.97;;;22.28;100.00
3434;BME280;1730;41.932;25.548;2023-04-15T11:28:04;98477.59;;;22.19;100.00
3434;BME280;1730;41.932;25.548;2023-04-15T11:30:33;98500.97;;;22.22;100.00
3434;BME280;1730;41.932;25.548;2023-04-15T11:33:06;98497.47;;;22.10;100.00
3434;BME280;1730;41.932;25.548;2023-04-15T11:35:36;98486.91;;;22.18;100.00
3434;BME280;1730;41.932;25.548;2023-04-15T11:38:11;98505.38;;;22.39;100.00
3434;BME280;1730;41.932;25.548;2023-04-15T11:40:39;98487.41;;;22.15;100.00
3434;BME280;1730;41.932;25.548;2023-04-15T11:43:15;98470.75;;;22.05;100.00
3434;BME280;1730;41.932;25.548;2023-04-15T11:45:55;98485.41;;;22.27;100.00
3434;BME280;1730;41.932;25.548;2023-04-15T11:48:23;98487.56;;;22.25;100.00
3434;BME280;1730;41.932;25.548;2023-04-15T11:53:22;98421.81;;;22.74;100.00
3434;BME280;1730;41.932;25.548;2023-04-15T11:55:52;98451.63;;;22.65;100.00
3434;BME280;1730;41.932;25.548;2023-04-15T11:58:23;98454.75;;;22.35;100.00
3434;BME280;1730;41.932;25.548;2023-04-15T12:00:57;98462.84;;;22.25;100.00
3434;BME280;1730;41.932;25.548;2023-04-15T12:03:28;98455.41;;;22.98;89.01
3434;BME280;1730;41.932;25.548;2023-04-15T12:16:43;98457.28;;;23.62;46.38
3434;BME280;1730;41.932;25.548;2023-04-15T12:19:10;98445.09;;;24.12;46.51
3434;BME280;1730;41.932;25.548;2023-04-15T12:21:39;98456.59;;;24.04;45.21
3434;BME280;1730;41.932;25.548;2023-04-15T12:24:06;98452.03;;;23.39;45.06
3434;BME280;1730;41.932;25.548;2023-04-15T12:26:36;98448.16;;;23.13;45.97
3434;BME280;1730;41.932;25.548;2023-04-15T12:29:09;98454.25;;;22.94;46.22
3434;BME280;1730;41.932;25.548;2023-04-15T12:31:36;98450.03;;;23.51;44.99
3434;BME280;1730;41.932;25.548;2023-04-15T12:34:03;98458.66;;;23.87;44.11
3434;BME280;1730;41.932;25.548;2023-04-15T12:36:30;98451.28;;;23.97;44.19
3434;BME280;1730;41.932;25.548;2023-04-15T12:39:01;98452.06;;;24.19;44.84
3434;BME280;1730;41.932;25.548;2023-04-15T12:41:27;98448.81;;;24.28;43.85
3434;BME280;1730;41.932;25.548;2023-04-15T12:43:52;98436.97;;;24.27;43.34
3434;BME280;1730;41.932;25.548;2023-04-15T12:46:18;98441.72;;;24.79;43.00
3434;BME280;1730;41.932;25.548;2023-04-15T12:48:44;98448.38;;;24.83;42.47
3434;BME280;1730;41.932;25.548;2023-04-15T12:51:10;98431.31;;;24.12;44.61
3434;BME280;1730;41.932;25.548;2023-04-15T12:53:36;98451.56;;;24.64;45.61
3434;BME280;1730;41.932;25.548;2023-04-15T12:56:01;98449.19;;;24.83;44.24
3434;BME280;1730;41.932;25.548;2023-04-15T12:58:27;98430.03;;;24.56;44.93
3434;BME280;1730;41.932;25.548;2023-04-15T13:00:52;98415.41;;;24.19;45.67
3434;BME280;1730;41.932;25.548;2023-04-15T13:03:18;98435.53;;;24.19;46.24
3434;BME280;1730;41.932;25.548;2023-04-15T13:05:43;98401.81;;;23.75;43.51
3434;BME280;1730;41.932;25.548;2023-04-15T13:08:09;98350.69;;;23.04;44.12
3434;BME280;1730;41.932;25.548;2023-04-15T13:10:35;98454.59;;;23.94;46.28
3434;BME280;1730;41.932;25.548;2023-04-15T13:13:03;98452.22;;;24.40;45.41
3434;BME280;1730;41.932;25.548;2023-04-15T13:15:29;98451.25;;;23.92;47.74